Time;durP1;ratioP1;P1;durP2;ratioP2;P2;SDS_P1;SDS_P2;PMS_P1;PMS_P2;Temp;Humidity;BMP_temperature;BMP_pressure;BME280_temperature;BME280_humidity;BME280_pressure;Samples;Min_cycle;Max_cycle;Signal;HPM_P1;HPM_P2
2021/09/02 00:00:47;;;;;;;;;;;;;;;13.78;100.00;102299.34;5052062;28;20037;-72
2021/09/02 00:03:12;;;;;;;;;;;;;;;13.85;100.00;102295.06;5034680;28;19908;-72
2021/09/02 00:05:38;;;;;;;18.93;6.23;;;;;;;13.85;100.00;102292.38;5051576;28;19951;-72
2021/09/02 00:08:03;;;;;;;26.67;6.57;;;;;;;13.83;100.00;102302.41;5033812;28;20024;-72
2021/09/02 00:10:29;;;;;;;18.03;6.60;;;;;;;13.92;100.00;102300.69;5051437;28;20412;-72
2021/09/02 00:12:54;;;;;;;18.43;6.67;;;;;;;13.92;100.00;102295.34;5034165;28;20285;-72
2021/09/02 00:15:19;;;;;;;19.70;7.37;;;;;;;13.93;99.83;102303.25;5033768;28;20039;-72
2021/09/02 00:17:45;;;;;;;19.40;7.07;;;;;;;13.90;99.85;102297.31;5033969;28;20033;-72
2021/09/02 00:20:11;;;;;;;14.43;7.17;;;;;;;14.05;99.09;102300.38;5017586;28;20037;-72
2021/09/02 00:22:36;;;;;;;20.92;6.32;;;;;;;14.03;98.09;102305.91;5051136;28;20525;-72
2021/09/02 00:25:02;;;;;;;26.53;6.07;;;;;;;13.97;98.67;102302.94;5051280;28;20124;-72
2021/09/02 00:27:28;;;;;;;17.70;6.93;;;;;;;13.88;98.86;102305.53;5033459;28;20119;-72
2021/09/02 00:29:54;;;;;;;26.45;7.65;;;;;;;13.97;98.46;102294.88;5017491;28;20117;-72
2021/09/02 00:32:19;;;;;;;22.47;7.70;;;;;;;13.95;98.31;102305.78;5033618;28;20028;-72
2021/09/02 00:34:45;;;;;;;17.07;6.83;;;;;;;14.04;97.85;102301.38;5051231;28;20291;-72
2021/09/02 00:37:10;;;;;;;19.33;8.02;;;;;;;13.99;97.85;102290.22;5050721;28;20079;-72
2021/09/02 00:39:35;;;;;;;23.67;7.70;;;;;;;13.96;97.99;102293.22;5033562;28;20048;-72
2021/09/02 00:42:01;;;;;;;25.10;7.40;;;;;;;13.96;98.78;102299.41;5033454;28;20350;-72
2021/09/02 00:44:33;;;;;;;23.50;7.20;;;;;;;13.99;98.93;102285.69;5051072;28;20416;-72
2021/09/02 00:47:01;;;;;;;29.80;7.47;;;;;;;14.03;98.64;102287.09;5050681;28;20135;-72
2021/09/02 00:49:27;;;;;;;28.30;8.50;;;;;;;14.07;99.42;102288.50;5016987;28;20116;-72
2021/09/02 00:51:52;;;;;;;18.42;7.32;;;;;;;14.09;99.13;102282.97;5050031;28;20144;-72
2021/09/02 00:54:17;;;;;;;22.13;8.10;;;;;;;14.09;98.23;102297.25;5050812;28;20037;-72
2021/09/02 00:56:43;;;;;;;30.10;8.40;;;;;;;14.07;98.21;102293.00;5050675;28;20056;-72
2021/09/02 00:59:08;;;;;;;22.77;8.73;;;;;;;14.00;96.89;102290.09;5050685;28;20090;-72
2021/09/02 01:01:35;;;;;;;22.23;9.02;;;;;;;14.00;96.91;102290.09;5033041;28;20385;-72
2021/09/02 01:04:03;;;;;;;18.93;8.20;;;;;;;14.01;96.80;102283.72;5050600;28;20116;-72
2021/09/02 01:06:28;;;;;;;25.92;9.13;;;;;;;14.05;97.03;102262.78;5032785;28;20041;-72
2021/09/02 01:08:54;;;;;;;28.50;8.77;;;;;;;14.03;95.83;102270.16;5032060;28;20033;-72
2021/09/02 01:11:19;;;;;;;29.38;7.70;;;;;;;14.08;95.69;102273.22;5050689;28;20028;-72
2021/09/02 01:13:44;;;;;;;21.67;8.40;;;;;;;13.98;96.08;102264.34;5015091;28;20163;-71
2021/09/02 01:16:09;;;;;;;18.60;7.97;;;;;;;14.06;96.26;102262.63;5032442;28;20139;-71
2021/09/02 01:18:35;;;;;;;20.90;7.90;;;;;;;14.09;96.46;102270.41;5050395;28;20040;-72
2021/09/02 01:21:00;;;;;;;26.17;8.30;;;;;;;14.08;96.37;102267.84;5033041;28;20056;-72
2021/09/02 01:23:26;;;;;;;27.50;8.67;;;;;;;13.93;96.74;102271.03;5032620;28;20044;-72
2021/09/02 01:25:51;;;;;;;17.80;8.60;;;;;;;14.03;96.89;102270.97;5050009;28;20039;-72
2021/09/02 01:28:17;;;;;;;21.40;8.20;;;;;;;14.08;96.42;102273.22;5016010;28;20056;-72
2021/09/02 01:30:43;;;;;;;26.50;8.10;;;;;;;14.10;96.16;102282.00;5049377;28;20083;-72
2021/09/02 01:33:10;;;;;;;22.05;7.72;;;;;;;14.06;96.55;102280.59;5048973;28;20033;-72
2021/09/02 01:35:36;;;;;;;34.03;11.02;;;;;;;14.08;96.08;102278.59;5048673;28;20028;-72
2021/09/02 01:38:04;;;;;;;22.87;8.90;;;;;;;14.00;96.42;102271.28;5048698;28;20029;-72
2021/09/02 01:40:39;;;;;;;25.65;9.10;;;;;;;14.03;96.36;102275.53;5030776;28;20036;-72
2021/09/02 01:43:07;;;;;;;19.63;8.13;;;;;;;14.01;96.95;102272.13;5049074;28;20517;-72
2021/09/02 01:45:33;;;;;;;23.55;8.32;;;;;;;14.07;96.55;102276.88;5030795;28;20421;-72
2021/09/02 01:48:00;;;;;;;21.77;8.00;;;;;;;14.12;96.91;102280.00;5031053;28;20033;-72
2021/09/02 01:50:27;;;;;;;18.55;8.38;;;;;;;14.15;96.23;102274.31;5048556;28;20111;-72
2021/09/02 01:52:55;;;;;;;25.30;8.48;;;;;;;14.14;96.04;102278.84;5030627;28;20044;-72
2021/09/02 01:55:22;;;;;;;24.70;8.98;;;;;;;14.14;96.18;102288.72;5030754;28;20055;-72
2021/09/02 01:57:48;;;;;;;19.98;9.18;;;;;;;14.21;95.62;102289.84;5048197;28;20044;-72
2021/09/02 02:00:15;;;;;;;30.60;8.32;;;;;;;14.17;95.38;102287.63;5047870;28;20304;-72
2021/09/02 02:02:41;;;;;;;22.50;9.80;;;;;;;14.19;95.60;102297.22;5048016;28;20533;-72
2021/09/02 02:05:07;;;;;;;22.35;8.77;;;;;;;14.21;95.73;102288.97;5013689;28;20033;-72
2021/09/02 02:07:34;;;;;;;29.63;9.82;;;;;;;14.21;95.81;102291.66;5030059;28;20132;-72
2021/09/02 02:09:59;;;;;;;24.88;9.73;;;;;;;14.19;95.32;102291.84;5047810;28;20024;-72
2021/09/02 02:12:24;;;;;;;32.60;10.50;;;;;;;14.26;95.29;102297.47;5047629;28;20794;-72
2021/09/02 02:14:50;;;;;;;36.57;11.83;;;;;;;14.06;95.93;102280.59;5048254;28;20518;-72
2021/09/02 02:17:16;;;;;;;28.33;10.02;;;;;;;14.04;96.69;102290.63;5013667;28;20371;-72
2021/09/02 02:19:41;;;;;;;31.17;11.27;;;;;;;14.17;96.14;102284.94;5030278;28;20036;-72
2021/09/02 02:22:07;;;;;;;28.93;10.33;;;;;;;14.16;96.50;102286.75;5047790;28;20453;-72
2021/09/02 02:24:32;;;;;;;29.07;10.10;;;;;;;14.17;96.87;102290.31;5030496;28;20056;-72
2021/09/02 02:26:58;;;;;;;25.33;9.73;;;;;;;14.12;97.20;102288.06;5030119;28;20358;-72
2021/09/02 02:29:23;;;;;;;33.78;10.13;;;;;;;14.22;97.00;102282.63;5030428;28;20343;-72
2021/09/02 02:31:49;;;;;;;23.83;9.83;;;;;;;14.19;97.13;102278.41;5029987;28;20056;-72
2021/09/02 02:34:15;;;;;;;33.97;9.55;;;;;;;14.25;97.18;102269.72;5047621;28;20083;-72
2021/09/02 02:36:40;;;;;;;22.50;9.52;;;;;;;14.25;96.58;102276.97;5013583;28;20102;-72
2021/09/02 02:39:06;;;;;;;26.02;10.60;;;;;;;14.25;95.94;102275.09;5047829;28;20130;-72
2021/09/02 02:41:32;;;;;;;36.37;11.97;;;;;;;14.23;96.50;102274.41;5029765;28;20048;-72
2021/09/02 02:43:57;;;;;;;26.05;9.52;;;;;;;14.24;96.76;102270.75;5047672;28;20032;-72
2021/09/02 02:46:22;;;;;;;28.50;10.43;;;;;;;14.23;96.62;102273.56;5029547;28;20031;-72
2021/09/02 02:48:48;;;;;;;24.70;9.77;;;;;;;14.18;97.20;102275.88;5047018;28;20123;-72
2021/09/02 02:51:13;;;;;;;30.73;10.77;;;;;;;14.18;97.80;102267.81;5030016;28;20041;-72
2021/09/02 02:53:39;;;;;;;22.27;9.13;;;;;;;14.17;97.43;102261.59;5013278;28;20122;-72
2021/09/02 02:56:05;;;;;;;31.58;10.63;;;;;;;14.21;96.91;102263.00;5047073;28;20044;-72
2021/09/02 02:58:30;;;;;;;26.77;10.63;;;;;;;14.20;96.90;102266.66;5029656;28;20117;-72
2021/09/02 03:00:55;;;;;;;34.43;10.90;;;;;;;14.25;96.57;102259.00;5029881;28;20082;-72
2021/09/02 03:03:21;;;;;;;33.47;10.63;;;;;;;14.26;96.03;102270.59;5046806;28;20033;-72
2021/09/02 03:05:46;;;;;;;26.73;10.63;;;;;;;14.27;96.52;102262.38;5013058;28;20339;-72
2021/09/02 03:08:11;;;;;;;27.00;11.50;;;;;;;14.13;96.39;102270.94;5029460;28;20137;-72
2021/09/02 03:10:37;;;;;;;25.50;10.20;;;;;;;14.20;96.90;102261.28;5047289;28;20045;-72
2021/09/02 03:13:02;;;;;;;32.70;11.23;;;;;;;14.16;97.67;102265.25;5029448;28;20040;-72
2021/09/02 03:15:29;;;;;;;30.03;12.47;;;;;;;14.12;97.02;102266.56;5047260;28;20024;-72
2021/09/02 03:17:55;;;;;;;25.50;11.73;;;;;;;14.26;95.92;102271.44;5046509;28;20032;-72
2021/09/02 03:20:21;;;;;;;25.30;9.90;;;;;;;14.26;94.98;102279.50;5029653;28;20346;-72
2021/09/02 03:22:46;;;;;;;31.57;10.70;;;;;;;14.23;95.97;102270.88;5029309;28;20028;-72
2021/09/02 03:25:11;;;;;;;36.63;11.53;;;;;;;14.26;96.02;102281.34;5029655;28;20052;-72
2021/09/02 03:27:37;;;;;;;26.50;11.60;;;;;;;14.30;96.26;102280.03;5047882;28;20132;-72
2021/09/02 03:30:04;;;;;;;32.37;12.37;;;;;;;14.21;96.65;102279.13;5014013;28;20027;-72
2021/09/02 03:32:30;;;;;;;21.40;10.50;;;;;;;14.26;97.02;102281.34;5051867;28;20056;-72
2021/09/02 03:34:55;;;;;;;27.97;9.40;;;;;;;14.23;96.05;102282.47;5034394;28;20154;-71
2021/09/02 03:37:20;;;;;;;25.57;10.87;;;;;;;14.18;96.02;102274.00;5052026;28;20048;-72
2021/09/02 03:39:46;;;;;;;30.40;11.20;;;;;;;14.14;95.75;102275.31;5052045;28;20037;-72
2021/09/02 03:42:11;;;;;;;28.70;10.87;;;;;;;14.17;94.60;102277.72;5018063;28;20041;-72
2021/09/02 03:44:36;;;;;;;27.63;10.37;;;;;;;14.25;93.51;102283.16;5034185;28;20025;-72
2021/09/02 03:47:02;;;;;;;20.77;9.63;;;;;;;14.13;93.17;102287.06;5017680;28;20037;-71
2021/09/02 03:49:27;;;;;;;26.60;10.67;;;;;;;14.20;93.29;102284.63;5051856;28;20497;-71
2021/09/02 03:51:53;;;;;;;28.63;10.80;;;;;;;14.17;93.83;102285.78;5051902;28;20477;-72
2021/09/02 03:54:18;;;;;;;22.10;11.37;;;;;;;14.15;94.63;102277.84;5051553;28;20037;-72
2021/09/02 03:56:43;;;;;;;25.17;12.07;;;;;;;14.24;93.85;102277.97;5034095;28;20033;-72
2021/09/02 03:59:09;;;;;;;20.73;10.27;;;;;;;14.15;93.39;102277.84;5051531;28;20087;-72
2021/09/02 04:01:34;;;;;;;34.83;12.77;;;;;;;14.12;94.31;102275.47;5034020;28;20087;-71
2021/09/02 04:03:59;;;;;;;21.47;10.00;;;;;;;14.20;94.42;102281.94;5051752;28;20044;-72
2021/09/02 04:06:25;;;;;;;22.57;11.03;;;;;;;14.22;93.88;102279.94;5033639;28;20028;-71
2021/09/02 04:08:50;;;;;;;23.50;11.00;;;;;;;14.11;94.17;102278.28;5051172;28;20500;-72
2021/09/02 04:11:15;;;;;;;23.03;11.13;;;;;;;14.22;93.78;102285.31;5032905;28;20486;-72
2021/09/02 04:13:41;;;;;;;22.43;11.20;;;;;;;14.22;94.35;102278.09;5050905;28;20051;-72
2021/09/02 04:16:06;;;;;;;26.03;10.47;;;;;;;14.15;93.73;102279.69;5032298;28;20147;-72
2021/09/02 04:18:32;;;;;;;29.20;11.93;;;;;;;14.20;94.17;102276.56;5050386;28;20413;-72
2021/09/02 04:20:57;;;;;;;25.08;11.55;;;;;;;14.22;93.97;102280.78;5050113;28;20098;-72
2021/09/02 04:23:24;;;;;;;26.97;10.67;;;;;;;14.16;93.60;102276.00;5050318;28;20028;-72
2021/09/02 04:25:49;;;;;;;;;;;;;;;14.17;92.86;102282.25;5032436;28;20040;-71
2021/09/02 04:28:14;;;;;;;;;;;;;;;14.16;93.61;102281.38;5050635;28;19912;-72
2021/09/02 04:30:40;;;;;;;25.13;10.70;;;;;;;14.19;93.65;102281.09;5050160;28;19927;-72
2021/09/02 04:33:05;;;;;;;33.23;10.43;;;;;;;14.18;91.89;102274.00;5050029;28;20123;-72
2021/09/02 04:35:30;;;;;;;27.20;11.17;;;;;;;14.15;90.96;102274.31;5049860;28;20036;-72
2021/09/02 04:37:56;;;;;;;20.70;9.80;;;;;;;14.27;91.39;102283.03;5049815;28;20101;-72
2021/09/02 04:40:22;;;;;;;22.53;9.67;;;;;;;14.19;90.59;102281.09;5050089;28;20033;-72
2021/09/02 04:42:48;;;;;;;21.48;10.48;;;;;;;14.17;91.59;102283.09;5031997;28;20036;-72
2021/09/02 04:45:13;;;;;;;24.50;9.90;;;;;;;14.15;91.24;102287.75;5015745;28;20040;-71
2021/09/02 04:47:39;;;;;;;31.83;11.60;;;;;;;14.17;90.96;102283.09;5031437;28;20373;-71
2021/09/02 04:50:06;;;;;;;24.48;9.75;;;;;;;14.25;90.67;102285.00;5032257;28;20098;-72
2021/09/02 04:52:32;;;;;;;24.65;10.27;;;;;;;14.18;90.80;102282.06;5049445;28;20037;-72
2021/09/02 04:54:57;;;;;;;26.27;9.50;;;;;;;14.15;91.49;102293.13;5031845;28;20060;-72
2021/09/02 04:57:22;;;;;;;21.77;10.73;;;;;;;14.18;90.88;102300.88;5031705;28;20335;-71
2021/09/02 04:59:48;;;;;;;30.77;11.67;;;;;;;14.15;91.05;102291.28;5049548;28;20037;-72
2021/09/02 05:02:15;;;;;;;25.25;10.63;;;;;;;14.18;90.87;102300.88;5031703;28;20123;-72
2021/09/02 05:04:40;;;;;;;;;;;;;;;14.15;90.56;102298.50;5032446;28;20036;-72
2021/09/02 05:07:05;;;;;;;;;;;;;;;14.21;91.08;102305.09;5048511;28;19912;-72
2021/09/02 05:09:31;;;;;;;20.53;9.43;;;;;;;14.31;90.56;102312.13;5049304;28;20163;-72
2021/09/02 05:11:56;;;;;;;24.70;10.67;;;;;;;14.25;89.31;102310.03;5031668;28;20029;-72
2021/09/02 05:14:22;;;;;;;25.30;10.20;;;;;;;14.21;90.41;102310.47;5031654;28;20051;-72
2021/09/02 05:16:47;;;;;;;27.23;10.83;;;;;;;14.17;90.60;102314.47;5031548;28;20101;-72
2021/09/02 05:19:12;;;;;;;19.93;9.80;;;;;;;14.22;90.44;102307.66;5049425;28;20028;-72
2021/09/02 05:21:38;;;;;;;26.17;11.23;;;;;;;14.29;91.61;102316.81;5049151;28;20043;-72
2021/09/02 05:24:03;;;;;;;18.00;9.73;;;;;;;14.33;91.92;102315.53;5031075;28;20075;-72
2021/09/02 05:26:29;;;;;;;31.42;10.77;;;;;;;14.32;91.34;102323.72;5014853;28;20021;-72
2021/09/02 05:28:55;;;;;;;25.33;10.50;;;;;;;14.27;91.52;102321.47;5031554;28;20504;-72
2021/09/02 05:31:21;;;;;;;21.20;10.95;;;;;;;14.22;91.53;102320.25;5031137;28;20047;-72
2021/09/02 05:33:47;;;;;;;27.63;11.10;;;;;;;14.25;92.06;102323.47;5048764;28;20438;-72
2021/09/02 05:36:13;;;;;;;28.63;10.23;;;;;;;14.30;92.19;102323.84;5048504;28;20136;-72
2021/09/02 05:38:38;;;;;;;26.87;11.27;;;;;;;14.31;91.62;102325.56;5031149;28;20028;-72
2021/09/02 05:41:03;;;;;;;22.53;9.77;;;;;;;14.23;91.83;102330.81;5048795;28;20434;-72
2021/09/02 05:43:29;;;;;;;23.60;11.00;;;;;;;14.18;90.61;102321.53;5048680;28;20047;-72
2021/09/02 05:45:54;;;;;;;29.10;10.00;;;;;;;14.20;89.44;102328.44;5030793;28;20155;-72
2021/09/02 05:48:20;;;;;;;17.47;8.87;;;;;;;14.24;90.07;102329.84;5031236;28;20170;-72
2021/09/02 05:50:45;;;;;;;23.03;9.90;;;;;;;14.23;89.46;102336.19;5048713;28;20196;-72
2021/09/02 05:53:11;;;;;;;20.57;9.53;;;;;;;14.21;90.53;102334.66;5047989;28;20089;-72
2021/09/02 05:55:37;;;;;;;19.90;8.80;;;;;;;14.22;89.90;102331.81;5030682;28;20078;-72
2021/09/02 05:58:03;;;;;;;25.55;9.65;;;;;;;14.25;89.35;102331.53;5031079;28;20036;-72
2021/09/02 06:00:28;;;;;;;21.70;9.77;;;;;;;14.19;90.00;102332.13;5030731;28;20037;-72
2021/09/02 06:02:53;;;;;;;20.30;9.47;;;;;;;14.10;89.25;102336.53;5048338;28;20033;-72
2021/09/02 06:05:19;;;;;;;25.53;9.53;;;;;;;14.16;88.11;102335.09;5014165;28;20033;-72
2021/09/02 06:07:44;;;;;;;19.67;7.83;;;;;;;14.27;89.53;102344.81;5047865;28;20041;-72
2021/09/02 06:10:10;;;;;;;25.50;10.13;;;;;;;14.35;89.13;102344.91;5048161;28;20033;-72
2021/09/02 06:12:36;;;;;;;19.48;9.40;;;;;;;14.35;88.63;102350.28;5030625;28;20079;-72
2021/09/02 06:15:02;;;;;;;18.55;8.18;;;;;;;14.33;87.24;102342.38;5047853;28;20037;-72
2021/09/02 06:17:27;;;;;;;18.00;8.77;;;;;;;14.14;88.63;102347.81;5030362;28;20029;-72
2021/09/02 06:19:53;;;;;;;25.63;9.00;;;;;;;14.19;89.12;102356.31;5030311;28;20032;-73
2021/09/02 06:22:18;;;;;;;24.13;9.30;;;;;;;14.32;90.49;102361.34;5030350;28;20040;-72
2021/09/02 06:24:43;;;;;;;18.20;9.07;;;;;;;14.36;90.15;102358.19;5047860;28;20136;-72
2021/09/02 06:27:08;;;;;;;23.60;9.10;;;;;;;14.39;88.21;102365.13;5030054;28;20028;-72
2021/09/02 06:29:34;;;;;;;33.87;10.23;;;;;;;14.46;88.66;102365.38;5048022;28;20471;-72
2021/09/02 06:32:01;;;;;;;16.57;9.10;;;;;;;14.48;88.48;102363.38;5048071;28;20028;-72
2021/09/02 06:34:27;;;;;;;20.83;9.02;;;;;;;14.47;89.02;102365.25;5047823;28;20048;-72
2021/09/02 06:36:52;;;;;;;24.40;9.33;;;;;;;14.52;90.42;102367.47;5029885;28;20028;-73
2021/09/02 06:39:17;;;;;;;31.40;9.77;;;;;;;14.56;89.31;102366.19;5047766;28;20045;-72
2021/09/02 06:41:43;;;;;;;21.00;8.73;;;;;;;14.60;90.03;102354.16;5029938;28;20090;-72
2021/09/02 06:44:08;;;;;;;15.60;7.60;;;;;;;14.72;88.25;102363.69;5029885;28;20035;-72
2021/09/02 06:46:33;;;;;;;22.77;8.47;;;;;;;14.61;87.49;102358.56;5047126;28;20564;-72
2021/09/02 06:48:59;;;;;;;22.17;8.13;;;;;;;14.59;88.21;102362.38;5030194;28;20123;-72
2021/09/02 06:51:24;;;;;;;17.53;7.97;;;;;;;14.58;88.99;102361.53;5013348;28;20568;-72
2021/09/02 06:53:49;;;;;;;26.70;9.10;;;;;;;14.62;88.56;102365.59;5048286;28;20751;-72
2021/09/02 06:56:15;;;;;;;17.87;8.87;;;;;;;14.70;87.68;102371.09;5030530;28;20076;-72
2021/09/02 06:58:40;;;;;;;33.57;10.07;;;;;;;14.59;87.39;102373.97;5048465;28;20037;-72
2021/09/02 07:01:06;;;;;;;29.07;10.07;;;;;;;14.49;86.48;102383.88;5031075;28;20104;-72
2021/09/02 07:03:31;;;;;;;18.87;9.23;;;;;;;14.52;87.56;102378.22;5030870;28;20025;-72
2021/09/02 07:05:56;;;;;;;21.67;10.43;;;;;;;14.55;88.04;102388.69;5029665;28;20369;-72
2021/09/02 07:08:22;;;;;;;20.00;9.50;;;;;;;14.68;87.04;102381.16;5030633;28;20040;-72
2021/09/02 07:10:47;;;;;;;22.47;8.23;;;;;;;14.71;87.15;102380.84;5048562;28;20132;-72
2021/09/02 07:13:12;;;;;;;20.33;8.80;;;;;;;14.77;87.22;102382.06;5047908;28;20068;-73
2021/09/02 07:15:38;;;;;;;19.67;8.37;;;;;;;14.82;86.89;102379.81;5030675;28;20044;-72
2021/09/02 07:18:04;;;;;;;22.87;9.20;;;;;;;14.93;86.63;102386.78;5030392;28;20036;-72
2021/09/02 07:20:29;;;;;;;26.88;10.57;;;;;;;14.92;85.82;102374.34;5030775;28;20094;-70
2021/09/02 07:22:54;;;;;;;23.07;9.27;;;;;;;14.85;85.13;102368.72;5047863;28;20029;-71
2021/09/02 07:25:20;;;;;;;22.53;9.23;;;;;;;14.88;85.69;102378.34;5048192;28;20072;-70
2021/09/02 07:27:45;;;;;;;31.77;10.60;;;;;;;14.93;85.23;102378.72;5047823;28;20032;-70
2021/09/02 07:30:11;;;;;;;17.27;8.47;;;;;;;14.96;86.57;102387.34;5030712;28;20048;-71
2021/09/02 07:32:37;;;;;;;25.33;8.82;;;;;;;15.03;83.98;102384.91;5030656;28;20047;-71
2021/09/02 07:35:03;;;;;;;19.13;8.23;;;;;;;15.03;82.75;102392.97;5047827;28;20086;-70
2021/09/02 07:37:28;;;;;;;20.92;9.82;;;;;;;14.78;84.55;102384.63;5030513;28;20440;-70
2021/09/02 07:39:54;;;;;;;27.98;11.25;;;;;;;14.83;83.96;102380.63;5047900;28;20133;-70
2021/09/02 07:42:19;;;;;;;20.40;9.27;;;;;;;14.83;85.20;102386.84;5048160;28;20047;-70
2021/09/02 07:44:44;;;;;;;19.80;8.57;;;;;;;14.91;84.83;102380.72;5030270;28;20048;-72
2021/09/02 07:47:11;;;;;;;27.43;9.57;;;;;;;15.09;84.73;102384.28;5030299;28;20041;-73
2021/09/02 07:49:36;;;;;;;20.02;9.43;;;;;;;15.15;83.63;102381.00;5030625;28;20044;-71
2021/09/02 07:52:02;;;;;;;22.10;8.13;;;;;;;15.27;83.73;102380.78;5047813;28;20406;-70
2021/09/02 07:54:27;;;;;;;26.85;8.63;;;;;;;15.05;83.87;102382.88;5030013;28;20445;-72
2021/09/02 07:56:53;;;;;;;24.83;8.10;;;;;;;15.37;83.53;102389.59;5047783;28;20033;-70
2021/09/02 07:59:21;;;;;;;19.07;8.10;;;;;;;15.31;82.01;102384.81;5030293;28;20107;-70
2021/09/02 08:01:46;;;;;;;21.63;9.70;;;;;;;15.45;83.15;102386.13;5047940;28;20044;-70
2021/09/02 08:04:12;;;;;;;17.10;8.80;;;;;;;15.55;81.50;102386.91;5047830;28;20465;-70
2021/09/02 08:06:37;;;;;;;25.55;8.88;;;;;;;15.68;81.02;102390.03;5046447;28;20219;-71
2021/09/02 08:09:03;;;;;;;22.70;9.07;;;;;;;15.78;80.53;102396.22;5046566;28;20048;-70
2021/09/02 08:11:28;;;;;;;16.80;9.30;;;;;;;15.85;80.94;102391.03;5028623;28;20099;-70
2021/09/02 08:13:57;;;;;;;15.35;7.93;;;;;;;15.91;80.69;102401.16;5028860;28;20029;-71
2021/09/02 08:16:24;;;;;;;15.13;6.80;;;;;;;16.21;79.80;102399.00;5046332;28;20037;-71
2021/09/02 08:18:49;;;;;;;21.33;7.70;;;;;;;16.26;79.97;102402.06;5051754;28;20045;-71
2021/09/02 08:21:15;;;;;;;16.33;7.00;;;;;;;16.08;78.85;102396.72;5033753;28;20079;-71
2021/09/02 08:23:41;;;;;;;24.48;7.93;;;;;;;16.34;78.31;102394.06;5051574;28;20377;-71
2021/09/02 08:26:07;;;;;;;14.07;7.30;;;;;;;16.48;79.68;102400.66;5050828;28;20039;-72
2021/09/02 08:28:32;;;;;;;22.50;8.13;;;;;;;16.58;78.58;102400.56;5034031;28;20029;-71
2021/09/02 08:30:57;;;;;;;16.13;8.27;;;;;;;16.65;79.39;102410.53;5051304;28;20440;-71
2021/09/02 08:33:23;;;;;;;20.50;7.90;;;;;;;17.01;77.92;102417.59;5033849;28;20339;-71
2021/09/02 08:35:51;;;;;;;17.90;7.20;;;;;;;16.64;78.48;102405.28;5050895;28;20037;-71
2021/09/02 08:38:17;;;;;;;17.10;7.03;;;;;;;17.06;75.84;102407.16;5051154;28;20041;-71
2021/09/02 08:40:43;;;;;;;19.63;7.40;;;;;;;17.17;74.68;102412.22;5033744;28;20043;-71
2021/09/02 08:43:09;;;;;;;16.63;7.55;;;;;;;16.74;74.52;102416.81;5051033;28;20094;-71
2021/09/02 08:45:35;;;;;;;18.23;7.37;;;;;;;16.76;76.28;102419.31;5051217;28;20033;-71
2021/09/02 08:48:01;;;;;;;16.20;6.90;;;;;;;17.12;76.03;102422.69;5050386;28;20732;-71
2021/09/02 08:50:29;;;;;;;19.83;7.40;;;;;;;16.91;75.90;102430.38;5050982;28;20086;-71
2021/09/02 08:52:55;;;;;;;17.83;7.47;;;;;;;16.92;75.48;102421.28;5015950;28;20036;-71
2021/09/02 08:55:23;;;;;;;18.40;7.78;;;;;;;17.05;76.47;102427.06;5032782;28;20744;-71
2021/09/02 08:57:50;;;;;;;20.15;8.60;;;;;;;17.19;75.83;102418.31;5032736;28;20071;-71
2021/09/02 09:00:15;;;;;;;14.50;6.68;;;;;;;17.15;75.17;102424.22;5050619;28;20041;-71
2021/09/02 09:02:42;;;;;;;16.83;6.05;;;;;;;17.58;73.83;102428.47;5050346;28;20108;-71
2021/09/02 09:05:09;;;;;;;;;;;;;;;16.99;76.25;102416.91;5033638;28;20095;-71
2021/09/02 09:07:37;;;;;;;17.35;8.68;;;;;;;17.12;75.44;102422.69;5050411;28;19927;-74
2021/09/02 09:10:09;;;;;;;16.35;6.90;;;;;;;17.48;74.54;102428.63;5050213;28;20079;-71
2021/09/02 09:12:40;;;;;;;19.58;7.80;;;;;;;17.40;73.02;102433.19;5050657;28;20047;-71
2021/09/02 09:15:08;;;;;;;20.70;6.93;;;;;;;17.56;74.44;102427.81;5050229;28;20102;-71
2021/09/02 09:17:34;;;;;;;18.08;7.65;;;;;;;17.24;73.61;102424.06;5050312;28;20384;-73
2021/09/02 09:20:00;;;;;;;22.88;7.50;;;;;;;17.26;73.49;102434.69;5050140;28;20037;-71
2021/09/02 09:22:28;;;;;;;24.60;7.95;;;;;;;17.32;74.20;102430.47;5049751;28;20424;-70
2021/09/02 09:24:56;;;;;;;17.85;7.97;;;;;;;16.88;74.47;102431.56;5032245;28;20029;-71
2021/09/02 09:27:47;;;;;;;16.98;7.78;;;;;;;16.27;76.14;102436.09;5049995;28;20037;-71
2021/09/02 09:30:20;;;;;;;15.95;7.65;;;;;;;16.57;76.84;102432.03;5049288;28;20098;-71
2021/09/02 09:32:49;;;;;;;17.30;7.55;;;;;;;16.67;76.86;102438.19;5032274;28;20052;-73
2021/09/02 09:35:21;;;;;;;18.77;8.18;;;;;;;17.02;76.59;102436.31;5049711;28;20049;-71
2021/09/02 09:37:48;;;;;;;21.35;7.68;;;;;;;17.30;74.94;102444.13;5049920;28;20040;-71
2021/09/02 09:40:22;;;;;;;12.52;6.97;;;;;;;17.11;75.43;102445.25;5049604;28;20028;-71
2021/09/02 09:42:58;;;;;;;20.65;8.07;;;;;;;17.34;76.70;102448.19;5049863;28;20037;-73
2021/09/02 09:45:37;;;;;;;18.55;8.75;;;;;;;17.28;74.29;102457.81;5031784;28;20045;-73
2021/09/02 09:48:03;;;;;;;20.83;7.60;;;;;;;16.68;76.09;102452.50;5049658;28;20118;-72
2021/09/02 09:50:28;;;;;;;24.48;9.05;;;;;;;16.36;76.61;102450.47;5049639;28;20075;-72
2021/09/02 09:52:54;;;;;;;19.67;7.77;;;;;;;16.84;76.08;102446.38;5031932;28;20221;-72
2021/09/02 09:55:20;;;;;;;19.90;7.93;;;;;;;17.11;75.44;102442.56;5049098;28;20271;-73
2021/09/02 09:57:47;;;;;;;18.50;6.60;;;;;;;17.25;75.38;102441.09;5049412;28;20045;-72
2021/09/02 10:00:18;;;;;;;14.05;6.45;;;;;;;17.43;74.45;102441.81;5049499;28;20409;-73
2021/09/02 10:02:49;;;;;;;19.35;8.43;;;;;;;17.40;73.05;102441.31;5032118;28;20497;-73
2021/09/02 10:05:16;;;;;;;14.75;6.63;;;;;;;17.54;73.82;102442.50;5049322;28;20036;-73
2021/09/02 10:07:45;;;;;;;15.07;7.05;;;;;;;18.14;72.51;102445.72;5048668;28;20179;-73
2021/09/02 10:10:13;;;;;;;25.83;7.43;;;;;;;18.45;70.67;102438.69;5031795;28;20037;-73
2021/09/02 10:12:42;;;;;;;13.43;6.65;;;;;;;18.35;68.38;102447.00;5049053;28;20039;-73
2021/09/02 10:15:17;;;;;;;13.48;6.97;;;;;;;18.75;68.42;102451.47;5049025;28;20035;-73
2021/09/02 10:17:43;;;;;;;15.98;6.88;;;;;;;18.26;68.80;102451.63;5048733;28;20150;-72
2021/09/02 10:20:14;;;;;;;12.95;6.93;;;;;;;18.71;69.39;102454.69;5049142;28;20021;-72
2021/09/02 10:22:40;;;;;;;14.85;6.80;;;;;;;18.46;69.41;102435.84;5031264;28;20041;-73
2021/09/02 10:25:32;;;;;;;15.23;6.68;;;;;;;19.41;67.66;102440.31;5048933;28;20056;-72
2021/09/02 10:28:12;;;;;;;19.13;6.57;;;;;;;19.46;63.97;102442.50;5048456;28;20045;-73
2021/09/02 10:30:43;;;;;;;13.77;6.93;;;;;;;19.31;66.58;102440.53;5048835;28;20040;-72
2021/09/02 10:33:28;;;;;;;22.38;7.22;;;;;;;19.53;65.53;102443.44;5014650;28;20048;-73
2021/09/02 10:35:53;;;;;;;15.37;7.17;;;;;;;19.56;64.78;102441.22;5030940;28;20476;-73
2021/09/02 10:38:36;;;;;;;11.67;6.27;;;;;;;20.44;63.22;102453.31;5048555;28;20306;-73
2021/09/02 10:41:01;;;;;;;18.42;6.50;;;;;;;19.99;64.05;102448.84;5031015;28;20370;-72
2021/09/02 10:43:46;;;;;;;20.90;7.70;;;;;;;20.00;62.51;102440.53;5031016;28;20025;-72
2021/09/02 10:46:33;;;;;;;14.88;7.32;;;;;;;19.47;64.84;102436.88;5048348;28;20035;-72
2021/09/02 10:49:17;;;;;;;14.40;6.60;;;;;;;21.12;60.66;102427.88;5030842;28;20515;-72
2021/09/02 10:51:48;;;;;;;19.92;7.63;;;;;;;21.66;59.13;102427.41;5048617;28;20044;-72
2021/09/02 10:54:15;;;;;;;15.75;6.75;;;;;;;22.50;59.35;102421.09;5030547;28;20044;-72
2021/09/02 10:57:09;;;;;;;14.52;6.57;;;;;;;21.42;59.31;102434.06;5048381;28;20470;-71
2021/09/02 10:59:46;;;;;;;12.85;5.80;;;;;;;21.37;59.80;102436.50;5048214;28;20481;-72
2021/09/02 11:02:17;;;;;;;13.52;6.85;;;;;;;21.16;57.46;102435.44;5048386;28;20033;-72
2021/09/02 11:04:55;;;;;;;15.02;7.18;;;;;;;20.56;59.73;102433.88;5048006;28;20054;-72
2021/09/02 11:07:35;;;;;;;10.63;6.57;;;;;;;19.36;63.50;102438.16;5048043;28;20056;-72
2021/09/02 11:10:10;;;;;;;19.67;7.20;;;;;;;19.05;67.34;102440.03;5048195;28;20044;-72
2021/09/02 11:12:35;;;;;;;13.32;7.22;;;;;;;19.97;64.09;102445.47;5048234;28;20116;-72
2021/09/02 11:15:01;;;;;;;21.53;7.83;;;;;;;20.04;61.87;102441.00;5047904;28;20112;-72